首页
METAR-TAF:

METAR-TAF

机场 :

基隆拿國際機場

基隆拿, 不列颠哥伦比亚, 加拿大

纬度: 49-58N, 经度: 119-23W, 海拔: 430米

当前天气观测

该预报发布于56分钟前的18:00 UTC
风速5节,风向东南,在东转东南南转西南之间变化
温度 18°C
湿度 45%
气压 1018 hPa
能見度: 14.5公里
多云层高于10000英尺
多云层高于12000英尺

METAR: CYLW 021800Z AUTO 14005KT 120V200 9SM BKN100 BKN120 18/06 A3005 RMK SLP177 DENSITY ALT 1800FT

时间: 11:56 (18:56 UTC)

预报

该预报发布于18分钟前的18:38 UTC
预报有效从02日的 19点(UTC)到 03日的 07点(UTC)
风速6节,风向
能見度: 10公里
多云层高于10000英尺
成为
从 02日的 19点(UTC)到 02日的 21点(UTC)
风速12节,风向南转西南,有时为22节阵风
从 02日的 2200点(UTC)
风速12节,风向南转西南,有时为22节阵风
能見度: 10公里
散云层高于5000英尺
多云层高于8000英尺
短暂存在
从 02日的 22点(UTC)到 03日的 01点(UTC)
能見度: 10公里
多云层高于5000英尺
阴天层高于8000英尺
小阵雨
从 03日的 0100点(UTC)
风速12节,风向西南,有时为22节阵风
能見度: 10公里
散云层高于6000英尺
短暂存在
从 03日的 01点(UTC)到 03日的 03点(UTC)
多云层高于6000英尺
成为
从 03日的 03点(UTC)到 03日的 05点(UTC)
风速6节,风向

TAF: CYLW 021838Z 0219/0307 18006KT P6SM BKN100 BECMG 0219/0221 21012G22KT FM022200 21012G22KT P6SM SCT050 BKN080 TEMPO 0222/0301 P6SM -SHRA BKN050 OVC080 FM030100 23012G22KT P6SM SCT060 TEMPO 0301/0303 BKN060 BECMG 0303/0305 19006KT RMK FCST BASED ON AUTO OBS. NXT FCST BY 030100Z

超过4000个机场的气象观测和天气预报(METAR&TAF报告)。

可查询的气象台以黄色和红色小点在地图上表示。

将鼠标移到小点上方,可查看气象台名称。

然后点击查看天气观测和预报。

如需切换地图:点击带黑十字的绿色按钮放大地图;点击带横线的绿色按钮缩小地图;或者点击绿色箭头查看邻近地区的地图。


METAR-TAF: